createdAt,value
2023-05-10T00:02:17.783Z,28.10
2023-05-10T00:07:19.932Z,28.00
2023-05-10T00:12:21.891Z,28.10
2023-05-10T00:17:23.951Z,28.10
2023-05-10T00:22:25.976Z,28.20
2023-05-10T00:27:27.989Z,28.10
2023-05-10T00:32:30.150Z,28.20
2023-05-10T00:37:32.255Z,28.20
2023-05-10T00:42:34.429Z,28.10
2023-05-10T00:47:36.891Z,28.20
2023-05-10T00:52:39.154Z,28.30
2023-05-10T00:57:41.774Z,28.30
2023-05-10T01:07:46.374Z,28.40
2023-05-10T01:12:48.609Z,28.40
2023-05-10T01:17:50.980Z,28.40
2023-05-10T01:23:02.122Z,28.50
2023-05-10T01:28:13.332Z,28.50
2023-05-10T01:33:21.368Z,28.60
2023-05-10T01:38:34.047Z,28.50
2023-05-10T01:43:42.706Z,28.50
2023-05-10T01:48:48.831Z,28.70
2023-05-10T01:53:52.584Z,28.70
2023-05-10T01:58:56.396Z,28.70
2023-05-10T02:03:59.118Z,28.70
2023-05-10T02:09:02.173Z,28.70
2023-05-10T02:14:08.577Z,28.80
2023-05-10T02:19:11.433Z,28.80
2023-05-10T02:24:14.915Z,28.70
2023-05-10T02:29:17.740Z,28.70
2023-05-10T02:34:20.502Z,28.60
2023-05-10T02:39:23.512Z,28.60
2023-05-10T02:44:27.831Z,28.70
2023-05-10T02:49:29.906Z,28.70
2023-05-10T02:54:34.031Z,28.90
2023-05-10T02:59:36.192Z,28.70
2023-05-10T03:04:38.323Z,28.70
2023-05-10T03:09:40.956Z,28.60
2023-05-10T03:14:57.767Z,28.70
2023-05-10T03:20:07.991Z,28.50
2023-05-10T03:25:11.772Z,28.60
2023-05-10T03:30:14.966Z,28.50
2023-05-10T03:35:17.466Z,28.50
2023-05-10T03:45:34.213Z,28.50
2023-05-10T03:50:36.406Z,28.60
2023-05-10T03:55:39.618Z,28.60
2023-05-10T04:00:46.207Z,28.70
2023-05-10T04:05:48.855Z,28.70
2023-05-10T04:10:50.934Z,28.80
2023-05-10T04:15:52.952Z,28.80
2023-05-10T04:20:54.961Z,28.70
2023-05-10T04:26:01.518Z,28.70
2023-05-10T04:31:04.807Z,28.80
2023-05-10T04:36:06.990Z,28.80
2023-05-10T04:41:09.527Z,28.80
2023-05-10T04:46:11.551Z,28.70
2023-05-10T04:51:13.669Z,28.70
2023-05-10T04:56:15.811Z,28.70
2023-05-10T05:01:18.049Z,28.60
2023-05-10T05:06:21.794Z,28.70
2023-05-10T05:11:23.883Z,28.90
2023-05-10T05:16:26.597Z,29.10
2023-05-10T05:21:29.800Z,29.30
2023-05-10T05:26:31.804Z,29.40
2023-05-10T05:31:33.909Z,29.50
2023-05-10T05:36:39.078Z,29.60
2023-05-10T05:41:41.067Z,29.70
2023-05-10T05:46:43.064Z,29.90
2023-05-10T05:51:45.959Z,29.40
2023-05-10T05:56:47.958Z,29.10
2023-05-10T06:01:50.146Z,28.90
2023-05-10T06:06:52.229Z,28.60
2023-05-10T06:11:54.238Z,28.20
2023-05-10T06:16:56.286Z,27.70
2023-05-10T06:21:58.435Z,27.80
2023-05-10T06:27:01.417Z,27.40
2023-05-10T06:32:03.537Z,26.90
2023-05-10T06:37:05.597Z,26.70
2023-05-10T06:42:07.620Z,26.60
2023-05-10T06:47:09.835Z,26.30
2023-05-10T06:52:11.813Z,26.20
2023-05-10T06:57:27.583Z,25.90
2023-05-10T07:02:32.474Z,25.90
2023-05-10T07:07:34.488Z,25.90
2023-05-10T07:12:36.588Z,25.80
2023-05-10T07:17:38.800Z,25.40
2023-05-10T07:22:41.089Z,25.30
2023-05-10T07:27:43.178Z,24.90
2023-05-10T07:32:46.008Z,24.80
2023-05-10T07:37:48.136Z,24.50
2023-05-10T07:42:50.151Z,24.30
2023-05-10T07:47:52.263Z,24.00
2023-05-10T07:52:54.551Z,23.80
2023-05-10T07:57:56.571Z,23.70
2023-05-10T08:02:58.594Z,22.90
2023-05-10T08:08:01.107Z,22.50
2023-05-10T08:13:03.164Z,22.30
2023-05-10T08:18:05.336Z,22.10
2023-05-10T08:23:07.418Z,21.40
2023-05-10T08:28:11.281Z,21.50
2023-05-10T08:33:14.039Z,21.70
2023-05-10T08:38:16.090Z,21.70
2023-05-10T08:43:18.685Z,20.90
2023-05-10T08:48:22.140Z,20.90
2023-05-10T08:53:26.968Z,21.10
2023-05-10T08:58:29.080Z,20.40
2023-05-10T09:03:31.956Z,20.70
2023-05-10T09:08:34.476Z,19.80
2023-05-10T09:13:36.625Z,19.70
2023-05-10T09:18:38.752Z,18.80
2023-05-10T09:23:43.990Z,19.10
2023-05-10T09:28:54.606Z,19.20
2023-05-10T09:33:57.191Z,19.30
2023-05-10T09:38:59.236Z,19.40
2023-05-10T09:44:01.233Z,19.10
2023-05-10T09:49:03.264Z,19.10
2023-05-10T09:54:15.717Z,19.20
2023-05-10T09:59:18.596Z,19.00
2023-05-10T10:04:21.290Z,18.90
2023-05-10T10:09:23.335Z,19.10
2023-05-10T10:14:25.543Z,19.40
2023-05-10T10:19:27.793Z,19.70
2023-05-10T10:24:29.826Z,19.10
2023-05-10T10:29:44.649Z,18.80
2023-05-10T10:34:47.000Z,18.20
2023-05-10T10:39:49.806Z,17.90
2023-05-10T10:45:11.784Z,16.80
2023-05-10T10:50:13.975Z,16.40
2023-05-10T10:55:25.934Z,16.50
2023-05-10T11:00:29.212Z,16.70
2023-05-10T11:05:37.405Z,16.30
2023-05-10T11:10:40.030Z,16.00
2023-05-10T11:15:48.931Z,16.00
2023-05-10T11:20:52.012Z,15.50
2023-05-10T11:25:54.949Z,15.40
2023-05-10T11:30:57.592Z,15.30
2023-05-10T11:35:59.774Z,15.20
2023-05-10T11:41:01.780Z,15.10
2023-05-10T11:46:03.968Z,14.10
2023-05-10T11:51:06.120Z,14.30
2023-05-10T11:56:09.080Z,14.10
2023-05-10T12:01:11.684Z,13.40
2023-05-10T12:06:13.861Z,13.60
2023-05-10T12:11:16.581Z,13.60
2023-05-10T12:16:19.863Z,13.20
2023-05-10T12:21:22.541Z,13.30
2023-05-10T12:26:28.739Z,13.00
2023-05-10T12:31:30.959Z,13.00
2023-05-10T12:36:33.766Z,12.90
2023-05-10T12:41:35.964Z,12.80
2023-05-10T12:46:37.938Z,12.50
2023-05-10T12:51:39.965Z,12.20
2023-05-10T12:56:43.549Z,11.90
2023-05-10T13:01:45.608Z,11.70
2023-05-10T13:11:50.649Z,10.40
2023-05-10T13:16:52.831Z,10.20
2023-05-10T13:26:57.345Z,9.30
2023-05-10T13:31:59.763Z,8.10
2023-05-10T13:37:02.350Z,8.00
2023-05-10T13:42:04.808Z,7.40
2023-05-10T13:47:07.048Z,7.20
2023-05-10T13:52:10.813Z,7.20
2023-05-10T13:57:14.767Z,7.00
2023-05-10T14:02:16.799Z,6.30
2023-05-10T14:07:18.885Z,6.30
2023-05-10T14:12:20.989Z,5.50
2023-05-10T14:17:23.503Z,5.10
2023-05-10T14:22:25.616Z,3.10
2023-05-10T14:27:27.756Z,3.10
2023-05-10T14:32:30.211Z,3.20
2023-05-10T14:37:32.207Z,2.80
2023-05-10T14:42:34.254Z,3.30
2023-05-10T14:47:36.292Z,3.00
2023-05-10T14:52:38.293Z,3.00
2023-05-10T14:57:40.375Z,2.80
2023-05-10T15:02:42.575Z,2.50
2023-05-10T15:07:45.161Z,1.50
2023-05-10T15:12:47.217Z,1.00
2023-05-10T15:17:49.315Z,1.00
2023-05-10T15:22:51.703Z,1.00
2023-05-10T15:27:53.701Z,1.00
2023-05-10T15:32:56.089Z,1.00
2023-05-10T15:37:58.098Z,1.00
2023-05-10T15:43:00.135Z,1.00
2023-05-10T15:48:02.194Z,1.00
2023-05-10T15:53:04.174Z,1.00
2023-05-10T15:58:06.263Z,1.00
2023-05-10T16:03:08.461Z,1.00
2023-05-10T16:08:10.583Z,1.00
2023-05-10T16:13:14.987Z,1.00
2023-05-10T16:18:17.950Z,1.00
2023-05-10T16:23:20.405Z,1.00
2023-05-10T16:28:22.425Z,1.00
2023-05-10T16:33:24.416Z,1.00
2023-05-10T16:38:26.858Z,1.00
2023-05-10T16:43:29.236Z,1.00
2023-05-10T16:48:31.205Z,1.00
2023-05-10T16:53:33.750Z,1.00
2023-05-10T16:58:35.696Z,1.00
2023-05-10T17:03:37.912Z,1.00
2023-05-10T17:08:40.087Z,1.00
2023-05-10T17:13:42.095Z,1.00
2023-05-10T17:18:45.821Z,1.00
2023-05-10T17:23:48.177Z,1.00
2023-05-10T17:28:52.496Z,1.00
2023-05-10T17:33:54.528Z,1.00
2023-05-10T17:38:56.805Z,1.00
2023-05-10T17:43:58.830Z,1.20
2023-05-10T17:49:00.876Z,1.40
2023-05-10T17:54:03.180Z,1.80
2023-05-10T17:59:05.456Z,2.10
2023-05-10T18:04:07.900Z,2.40
2023-05-10T18:09:10.277Z,2.30
2023-05-10T18:14:12.285Z,2.30
2023-05-10T18:19:14.360Z,2.30
2023-05-10T18:24:16.912Z,2.50
2023-05-10T18:29:25.347Z,2.60
2023-05-10T18:34:27.426Z,2.80
2023-05-10T18:39:29.644Z,3.20
2023-05-10T18:44:31.798Z,3.30
2023-05-10T18:49:33.862Z,3.90
2023-05-10T18:54:36.018Z,4.50
2023-05-10T18:59:38.223Z,4.70
2023-05-10T19:04:40.422Z,5.20
2023-05-10T19:14:44.978Z,6.00
2023-05-10T19:19:47.036Z,6.00
2023-05-10T19:24:49.136Z,6.20
2023-05-10T19:29:52.502Z,6.30
2023-05-10T19:34:54.459Z,6.50
2023-05-10T19:39:56.495Z,6.60
2023-05-10T19:44:59.229Z,6.80
2023-05-10T19:50:01.892Z,7.00
2023-05-10T19:55:05.074Z,6.90
2023-05-10T20:00:07.942Z,7.10
2023-05-10T20:05:12.884Z,7.60
2023-05-10T20:10:16.488Z,7.60
2023-05-10T20:15:22.048Z,7.80
2023-05-10T20:20:24.150Z,7.70
2023-05-10T20:25:26.214Z,7.90
2023-05-10T20:30:28.214Z,8.30
2023-05-10T20:35:31.218Z,8.50
2023-05-10T20:40:33.762Z,8.70
2023-05-10T20:45:38.526Z,8.70
2023-05-10T20:50:40.663Z,9.00
2023-05-10T20:55:42.738Z,9.20
2023-05-10T21:00:44.845Z,9.50
2023-05-10T21:05:47.270Z,9.60
2023-05-10T21:10:49.370Z,9.80
2023-05-10T21:15:51.572Z,9.90
2023-05-10T21:20:53.751Z,10.10
2023-05-10T21:25:55.804Z,10.30
2023-05-10T21:30:57.859Z,10.50
2023-05-10T21:36:00.033Z,10.70
2023-05-10T21:41:06.060Z,10.80
2023-05-10T21:46:09.024Z,11.10
2023-05-10T21:51:11.107Z,11.40
2023-05-10T21:56:13.157Z,11.70
2023-05-10T22:01:17.167Z,11.70
2023-05-10T22:06:19.249Z,11.80
2023-05-10T22:11:21.806Z,12.10
2023-05-10T22:16:24.057Z,12.20
2023-05-10T22:21:26.040Z,12.50
2023-05-10T22:26:28.051Z,12.70
2023-05-10T22:31:30.164Z,13.10
2023-05-10T22:36:32.445Z,13.20
2023-05-10T22:41:34.448Z,13.50
2023-05-10T22:46:37.424Z,13.80
2023-05-10T22:51:39.553Z,14.00
2023-05-10T22:56:41.549Z,14.10
2023-05-10T23:01:43.644Z,14.50
2023-05-10T23:06:46.392Z,14.80
2023-05-10T23:11:48.404Z,15.00
2023-05-10T23:16:50.407Z,15.10
2023-05-10T23:21:52.375Z,15.70
2023-05-10T23:26:54.430Z,15.80
2023-05-10T23:31:56.477Z,15.80
2023-05-10T23:36:58.532Z,16.00
2023-05-10T23:42:00.542Z,16.20
2023-05-10T23:47:02.501Z,16.30
2023-05-10T23:52:04.538Z,16.40
2023-05-10T23:57:06.588Z,16.60
